createdAt,value
2022-12-05T00:01:20.222Z,9.20
2022-12-05T00:03:48.541Z,9.10
2022-12-05T00:06:15.829Z,9.90
2022-12-05T00:08:42.895Z,8.73
2022-12-05T00:11:18.008Z,8.25
2022-12-05T00:13:45.656Z,8.02
2022-12-05T00:16:14.563Z,9.27
2022-12-05T00:18:42.311Z,8.07
2022-12-05T00:21:14.108Z,8.82
2022-12-05T00:23:41.145Z,7.55
2022-12-05T00:26:08.142Z,6.95
2022-12-05T00:28:35.732Z,9.40
2022-12-05T00:31:04.453Z,7.90
2022-12-05T00:33:31.387Z,8.50
2022-12-05T00:36:10.471Z,8.98
2022-12-05T00:38:41.489Z,7.90
2022-12-05T00:41:11.179Z,7.88
2022-12-05T00:43:38.739Z,9.23
2022-12-05T00:46:08.399Z,7.97
2022-12-05T00:48:36.487Z,9.23
2022-12-05T00:51:11.808Z,7.95
2022-12-05T00:53:39.365Z,8.82
2022-12-05T00:56:09.338Z,7.45
2022-12-05T00:58:36.688Z,6.97
2022-12-05T05:01:22.181Z,6.70
2022-12-05T05:03:54.365Z,6.13
2022-12-05T05:06:21.456Z,6.35
2022-12-05T05:08:53.781Z,6.88
2022-12-05T05:11:23.890Z,4.85
2022-12-05T05:13:54.133Z,6.80
2022-12-05T05:16:26.210Z,6.20
2022-12-05T05:18:54.036Z,7.57
2022-12-05T05:21:22.405Z,5.88
2022-12-05T05:23:49.575Z,6.43
2022-12-05T05:26:16.843Z,7.30
2022-12-05T05:28:44.038Z,6.75
2022-12-05T05:31:11.211Z,6.47
2022-12-05T05:33:38.047Z,6.03
2022-12-05T05:36:10.316Z,7.47
2022-12-05T05:38:38.266Z,6.57
2022-12-05T05:41:05.657Z,7.13
2022-12-05T05:43:32.850Z,5.72
2022-12-05T05:45:59.587Z,7.53
2022-12-05T05:48:26.293Z,5.90
2022-12-05T05:50:52.984Z,6.15
2022-12-05T05:53:19.643Z,6.60
2022-12-05T05:55:46.353Z,6.70
2022-12-05T05:58:12.992Z,6.05
2022-12-05T06:00:39.647Z,6.15
2022-12-05T06:03:06.515Z,6.32
2022-12-05T06:05:36.485Z,6.45
2022-12-05T06:08:04.385Z,5.97
2022-12-05T06:10:31.140Z,6.70
2022-12-05T06:12:58.304Z,6.45
2022-12-05T06:15:25.041Z,7.15
2022-12-05T06:17:51.856Z,5.22
2022-12-05T06:20:18.573Z,7.03
2022-12-05T06:22:45.292Z,7.20
2022-12-05T06:25:12.035Z,5.40
2022-12-05T06:27:38.725Z,6.13
2022-12-05T06:30:06.099Z,6.72
2022-12-05T06:32:32.797Z,6.72
2022-12-05T06:34:59.561Z,5.95
2022-12-05T06:37:26.269Z,6.10
2022-12-05T06:39:53.128Z,6.55
2022-12-05T06:42:22.133Z,6.68
2022-12-05T06:44:48.785Z,6.50
2022-12-05T06:47:15.584Z,6.45
2022-12-05T06:49:42.241Z,6.45
2022-12-05T06:52:08.968Z,6.32
2022-12-05T06:54:36.166Z,5.88
2022-12-05T06:57:02.808Z,5.45
2022-12-05T06:59:29.454Z,5.85
2022-12-05T07:01:58.634Z,5.35
2022-12-05T07:04:25.451Z,6.00
2022-12-05T07:06:54.867Z,6.20
2022-12-05T07:09:44.610Z,6.22
2022-12-05T07:12:13.284Z,6.18
2022-12-05T07:14:48.006Z,5.07
2022-12-05T07:17:17.195Z,6.53
2022-12-05T07:19:43.949Z,4.78
2022-12-05T07:22:15.397Z,5.50
2022-12-05T07:24:43.354Z,5.60
2022-12-05T07:27:10.020Z,4.80
2022-12-05T07:29:36.721Z,5.88
2022-12-05T07:32:04.064Z,4.95
2022-12-05T07:34:30.967Z,5.60
2022-12-05T07:36:58.193Z,5.50
2022-12-05T07:39:25.153Z,5.40
2022-12-05T07:41:51.792Z,5.32
2022-12-05T07:44:18.478Z,4.82
2022-12-05T07:46:45.321Z,5.75
2022-12-05T07:49:12.056Z,5.80
2022-12-05T07:51:38.950Z,5.57
2022-12-05T07:54:06.780Z,4.90
2022-12-05T07:56:34.019Z,5.75
2022-12-05T07:59:00.664Z,4.80
2022-12-05T08:01:29.191Z,5.28
2022-12-05T08:03:58.155Z,4.28
2022-12-05T08:06:28.535Z,5.85
2022-12-05T08:08:55.982Z,5.95
2022-12-05T08:11:26.552Z,4.38
2022-12-05T08:13:54.017Z,5.05
2022-12-05T08:16:26.560Z,5.78
2022-12-05T08:21:27.598Z,4.30
2022-12-05T08:23:54.480Z,5.00
2022-12-05T08:26:24.783Z,4.35
2022-12-05T08:28:56.933Z,4.68
2022-12-05T08:31:25.242Z,4.85
2022-12-05T08:33:57.226Z,4.88
2022-12-05T08:36:26.666Z,5.60
2022-12-05T08:39:02.129Z,6.47
2022-12-05T08:41:30.149Z,4.88
2022-12-05T08:43:59.679Z,5.45
2022-12-05T08:46:26.516Z,5.10
2022-12-05T08:48:54.813Z,4.70
2022-12-05T08:51:21.512Z,4.60
2022-12-05T08:53:48.560Z,4.50
2022-12-05T08:56:15.442Z,4.80
2022-12-05T08:58:42.640Z,4.60
2022-12-05T09:01:14.150Z,5.32
2022-12-05T09:03:47.295Z,4.55
2022-12-05T09:06:23.551Z,5.15
2022-12-05T09:08:54.351Z,5.07
2022-12-05T09:11:24.023Z,7.28
2022-12-05T09:13:52.620Z,4.70
2022-12-05T09:16:22.372Z,4.03
2022-12-05T09:18:50.341Z,5.22
2022-12-05T09:21:20.500Z,4.38
2022-12-05T09:23:47.937Z,4.78
2022-12-05T09:26:17.510Z,4.95
2022-12-05T09:28:45.043Z,4.28
2022-12-05T09:31:17.010Z,5.03
2022-12-05T09:33:44.470Z,3.50
2022-12-05T09:36:19.228Z,4.28
2022-12-05T09:38:46.729Z,5.38
2022-12-05T09:41:49.325Z,3.92
2022-12-05T09:44:43.091Z,5.13
2022-12-05T09:47:28.017Z,4.50
2022-12-05T09:50:13.746Z,4.15
2022-12-05T09:53:01.429Z,4.05
2022-12-05T09:55:51.528Z,3.65
2022-12-05T09:58:37.550Z,4.55
2022-12-05T10:01:23.086Z,4.38
2022-12-05T10:04:03.802Z,5.63
2022-12-05T10:06:41.154Z,3.83
2022-12-05T10:09:50.716Z,4.55
2022-12-05T10:12:41.298Z,6.10
2022-12-05T10:15:14.370Z,4.43
2022-12-05T10:17:54.118Z,4.93
2022-12-05T10:20:28.603Z,5.53
2022-12-05T10:23:00.548Z,4.10
2022-12-05T10:25:28.462Z,4.85
2022-12-05T10:28:01.489Z,4.43
2022-12-05T10:30:32.344Z,4.60
2022-12-05T10:33:06.452Z,5.43
2022-12-05T10:35:38.958Z,4.80
2022-12-05T10:38:16.558Z,4.57
2022-12-05T10:40:51.691Z,4.95
2022-12-05T10:43:25.633Z,4.53
2022-12-05T10:45:53.093Z,3.92
2022-12-05T10:48:21.333Z,4.25
2022-12-05T10:50:51.463Z,5.18
2022-12-05T10:53:23.580Z,4.57
2022-12-05T10:56:29.236Z,5.53
2022-12-05T10:58:56.236Z,4.72
2022-12-05T11:01:24.510Z,4.78
2022-12-05T11:03:58.032Z,4.55
2022-12-05T11:06:28.107Z,4.50
2022-12-05T11:09:04.731Z,3.70
2022-12-05T11:11:33.825Z,4.38
2022-12-05T11:14:06.402Z,3.60
2022-12-05T11:19:29.264Z,4.30
2022-12-05T11:21:56.630Z,4.53
2022-12-05T11:24:35.908Z,3.45
2022-12-05T11:27:17.623Z,4.07
2022-12-05T11:29:54.007Z,3.42
2022-12-05T11:32:27.007Z,4.35
2022-12-05T11:35:13.951Z,4.95
2022-12-05T11:37:52.384Z,4.53
2022-12-05T11:40:50.526Z,3.72
2022-12-05T11:43:17.153Z,4.03
2022-12-05T11:46:05.027Z,3.97
2022-12-05T11:49:01.639Z,4.32
2022-12-05T11:52:03.514Z,3.75
2022-12-05T11:55:05.355Z,4.13
2022-12-05T11:57:41.323Z,4.45
2022-12-05T12:00:14.040Z,4.15
2022-12-05T12:03:12.965Z,4.45
2022-12-05T12:05:42.509Z,3.92
2022-12-05T12:08:28.854Z,5.15
2022-12-05T12:11:13.135Z,5.05
2022-12-05T12:13:58.481Z,4.63
